createdAt,value
2022-11-06T00:00:48.466Z,10.57
2022-11-06T00:03:17.058Z,11.47
2022-11-06T00:06:03.456Z,10.67
2022-11-06T00:08:34.475Z,10.77
2022-11-06T00:11:10.704Z,10.70
2022-11-06T00:13:41.666Z,11.67
2022-11-06T00:16:11.595Z,10.93
2022-11-06T00:18:41.010Z,10.57
2022-11-06T00:21:11.093Z,11.13
2022-11-06T00:23:40.202Z,10.57
2022-11-06T00:26:10.158Z,10.73
2022-11-06T00:28:40.854Z,10.57
2022-11-06T00:31:11.763Z,11.60
2022-11-06T00:33:41.268Z,11.63
2022-11-06T00:36:12.186Z,10.50
2022-11-06T00:38:41.706Z,10.77
2022-11-06T00:41:12.919Z,10.47
2022-11-06T00:43:43.531Z,9.27
2022-11-06T00:46:13.712Z,8.37
2022-11-06T00:48:43.513Z,8.70
2022-11-06T00:51:13.827Z,9.10
2022-11-06T00:53:43.149Z,9.47
2022-11-06T00:56:14.901Z,7.73
2022-11-06T00:58:45.283Z,9.07
2022-11-06T01:01:20.228Z,7.70
2022-11-06T01:03:52.399Z,8.77
2022-11-06T01:06:22.464Z,8.80
2022-11-06T01:08:52.151Z,8.17
2022-11-06T01:11:24.521Z,8.73
2022-11-06T01:14:00.769Z,7.73
2022-11-06T01:16:31.250Z,8.60
2022-11-06T01:19:00.728Z,8.27
2022-11-06T01:21:31.428Z,8.03
2022-11-06T01:24:02.767Z,7.77
2022-11-06T01:26:39.286Z,8.27
2022-11-06T01:29:18.352Z,8.07
2022-11-06T01:31:47.263Z,7.47
2022-11-06T01:34:15.974Z,7.47
2022-11-06T01:36:44.602Z,7.33
2022-11-06T01:39:16.227Z,6.43
2022-11-06T01:41:46.553Z,8.00
2022-11-06T01:44:52.979Z,7.53
2022-11-06T01:47:24.810Z,7.33
2022-11-06T01:49:56.318Z,6.73
2022-11-06T01:52:25.578Z,7.70
2022-11-06T01:54:55.903Z,6.37
2022-11-06T01:57:24.545Z,6.13
2022-11-06T01:59:53.666Z,6.27
2022-11-06T02:02:24.707Z,6.33
2022-11-06T02:04:53.371Z,6.33
2022-11-06T02:07:22.969Z,6.23
2022-11-06T02:09:52.457Z,5.80
2022-11-06T02:12:28.344Z,6.47
2022-11-06T02:15:03.073Z,5.47
2022-11-06T02:17:46.079Z,5.00
2022-11-06T02:20:18.969Z,5.47
2022-11-06T02:23:08.085Z,5.67
2022-11-06T02:25:48.009Z,5.80
2022-11-06T02:28:24.579Z,5.57
2022-11-06T02:30:54.443Z,5.30
2022-11-06T02:33:29.539Z,5.67
2022-11-06T02:36:00.335Z,5.03
2022-11-06T02:38:32.781Z,4.60
2022-11-06T02:41:06.173Z,4.90
2022-11-06T02:43:40.557Z,5.17
2022-11-06T02:46:13.562Z,5.47
2022-11-06T02:48:45.014Z,5.50
2022-11-06T02:51:16.839Z,4.97
2022-11-06T02:53:46.520Z,5.13
2022-11-06T02:56:18.616Z,4.70
2022-11-06T02:58:52.101Z,5.20
2022-11-06T03:01:25.007Z,5.67
2022-11-06T03:03:56.014Z,5.90
2022-11-06T03:06:30.637Z,4.90
2022-11-06T03:09:04.943Z,5.47
2022-11-06T03:11:36.004Z,5.17
2022-11-06T03:14:09.840Z,5.23
2022-11-06T03:16:44.237Z,4.53
2022-11-06T03:19:16.785Z,4.93
2022-11-06T03:21:54.082Z,4.87
2022-11-06T03:24:31.166Z,4.90
2022-11-06T03:27:01.861Z,4.70
2022-11-06T03:29:38.030Z,4.37
2022-11-06T03:32:11.400Z,4.50
2022-11-06T03:34:44.139Z,4.30
2022-11-06T03:37:17.695Z,4.03
2022-11-06T03:39:50.136Z,4.33
2022-11-06T03:42:22.130Z,4.40
2022-11-06T03:44:55.566Z,4.30
2022-11-06T03:47:27.675Z,4.47
2022-11-06T03:50:00.178Z,4.13
2022-11-06T03:52:32.981Z,4.10
2022-11-06T03:55:04.552Z,4.20
2022-11-06T03:57:39.327Z,4.50
2022-11-06T04:00:11.740Z,4.57
2022-11-06T04:02:46.132Z,4.37
2022-11-06T04:05:18.569Z,5.00
2022-11-06T04:08:08.984Z,4.47
2022-11-06T04:10:55.841Z,4.50
2022-11-06T04:13:42.388Z,4.03
2022-11-06T04:16:13.534Z,4.37
2022-11-06T04:18:42.138Z,4.10
2022-11-06T04:21:26.349Z,4.60
2022-11-06T04:24:29.757Z,4.17
2022-11-06T04:27:09.758Z,4.40
2022-11-06T04:29:51.899Z,4.20
2022-11-06T04:32:28.085Z,4.43
2022-11-06T04:35:02.445Z,3.70
2022-11-06T04:37:36.597Z,4.60
2022-11-06T04:40:10.468Z,4.37
2022-11-06T04:42:47.108Z,3.97
2022-11-06T04:45:20.732Z,3.67
2022-11-06T04:47:53.894Z,4.50
2022-11-06T04:50:24.701Z,3.70
2022-11-06T04:52:53.810Z,4.63
2022-11-06T04:55:23.028Z,4.30
2022-11-06T04:57:51.450Z,3.80
2022-11-06T05:00:26.114Z,4.10
2022-11-06T05:02:56.265Z,3.80
2022-11-06T05:05:24.653Z,3.97
2022-11-06T05:07:53.603Z,4.60
2022-11-06T05:10:22.578Z,3.67
2022-11-06T05:12:51.300Z,3.90
2022-11-06T05:15:19.983Z,4.23
2022-11-06T05:17:48.609Z,4.73
2022-11-06T05:20:18.524Z,3.93
2022-11-06T05:23:01.122Z,3.67
2022-11-06T05:25:31.283Z,3.70
2022-11-06T05:28:01.123Z,3.37
2022-11-06T05:30:30.435Z,3.67
2022-11-06T05:32:58.946Z,4.10
2022-11-06T05:35:29.191Z,3.63
2022-11-06T05:38:01.289Z,4.23
2022-11-06T05:40:30.297Z,4.17
2022-11-06T05:42:58.867Z,5.00
2022-11-06T05:45:27.552Z,3.93
2022-11-06T05:47:56.184Z,3.80
2022-11-06T05:50:24.937Z,3.87
2022-11-06T05:52:54.793Z,4.10
2022-11-06T05:55:23.860Z,4.10
2022-11-06T05:57:52.378Z,3.80
2022-11-06T06:00:20.879Z,4.23
2022-11-06T06:02:49.588Z,4.40
2022-11-06T06:05:18.326Z,3.33
2022-11-06T06:07:46.985Z,3.77
2022-11-06T06:10:17.093Z,3.90
2022-11-06T06:12:45.883Z,3.73
2022-11-06T06:15:15.309Z,3.53
2022-11-06T06:17:45.541Z,4.13
2022-11-06T06:20:14.553Z,3.40
2022-11-06T06:22:43.117Z,4.50
2022-11-06T06:25:21.337Z,3.97
2022-11-06T06:27:53.852Z,3.87
2022-11-06T06:30:23.469Z,4.20
2022-11-06T06:32:52.516Z,4.27
2022-11-06T06:35:21.378Z,4.50
2022-11-06T06:37:54.424Z,3.33
2022-11-06T06:40:23.554Z,3.67
2022-11-06T06:42:56.725Z,4.73
2022-11-06T06:45:25.744Z,4.73
2022-11-06T06:47:54.843Z,3.80
2022-11-06T06:50:23.777Z,4.13
2022-11-06T06:52:57.026Z,4.20
2022-11-06T06:55:25.943Z,4.10
2022-11-06T06:57:59.371Z,4.10
2022-11-06T07:00:29.046Z,4.07
2022-11-06T07:02:58.173Z,4.27
2022-11-06T07:05:26.933Z,4.13
2022-11-06T07:07:55.717Z,4.37
2022-11-06T07:10:24.308Z,4.30
2022-11-06T07:12:53.092Z,3.90
2022-11-06T07:15:23.809Z,4.37
2022-11-06T07:17:52.629Z,3.90
2022-11-06T07:20:21.317Z,4.37
2022-11-06T07:22:49.873Z,3.90
2022-11-06T07:25:18.514Z,3.70
2022-11-06T07:27:46.995Z,3.97
2022-11-06T07:30:15.796Z,3.87
2022-11-06T07:32:45.743Z,4.17
2022-11-06T07:35:14.334Z,3.90
2022-11-06T07:37:43.297Z,3.80
2022-11-06T07:40:12.526Z,4.20
2022-11-06T07:42:43.654Z,3.50
2022-11-06T07:45:17.176Z,4.10
2022-11-06T07:47:47.414Z,3.53
2022-11-06T07:50:16.176Z,5.60
2022-11-06T07:52:44.665Z,3.80
2022-11-06T07:55:13.924Z,3.63
2022-11-06T07:57:42.494Z,4.57
2022-11-06T08:00:12.089Z,4.17
2022-11-06T08:02:44.421Z,3.50
2022-11-06T08:05:14.618Z,4.40
2022-11-06T08:07:43.655Z,4.40
2022-11-06T08:10:12.134Z,4.00
2022-11-06T08:12:40.732Z,3.80
2022-11-06T08:15:10.444Z,3.60
2022-11-06T08:17:39.079Z,4.33
2022-11-06T08:20:09.661Z,3.87
2022-11-06T08:22:39.850Z,3.43
2022-11-06T08:25:10.281Z,3.40
2022-11-06T08:27:39.141Z,3.67
2022-11-06T08:30:08.667Z,3.00
2022-11-06T08:32:37.665Z,3.77
2022-11-06T08:35:08.091Z,3.73
2022-11-06T08:37:39.387Z,3.30
2022-11-06T08:40:09.150Z,3.10
2022-11-06T08:42:37.796Z,3.53
2022-11-06T08:45:07.865Z,3.20
2022-11-06T08:47:36.559Z,3.37
2022-11-06T08:50:05.571Z,2.70
2022-11-06T08:52:34.499Z,3.50
2022-11-06T08:55:05.436Z,3.50
2022-11-06T08:57:33.997Z,3.30
2022-11-06T09:00:02.608Z,2.77
2022-11-06T09:02:31.167Z,3.73
2022-11-06T09:05:00.229Z,2.80
2022-11-06T09:07:28.776Z,3.27
2022-11-06T09:09:57.481Z,2.90
2022-11-06T09:12:27.869Z,3.30
2022-11-06T09:14:56.615Z,2.93
2022-11-06T09:17:25.448Z,3.30
2022-11-06T09:19:53.895Z,2.97
2022-11-06T09:22:22.468Z,3.30
2022-11-06T09:25:03.066Z,3.83
2022-11-06T09:27:33.890Z,3.70
2022-11-06T09:30:02.712Z,3.40
2022-11-06T09:32:31.032Z,3.47
2022-11-06T09:35:00.871Z,3.90
2022-11-06T09:37:29.840Z,3.77
2022-11-06T09:40:04.721Z,4.00
2022-11-06T09:42:43.107Z,3.57
2022-11-06T09:45:15.072Z,4.20
2022-11-06T09:47:45.681Z,3.70
2022-11-06T09:50:17.412Z,8.00
2022-11-06T09:52:48.149Z,8.97
2022-11-06T09:55:20.450Z,9.20
2022-11-06T09:57:53.474Z,7.77
2022-11-06T10:00:22.422Z,6.47
2022-11-06T10:02:53.893Z,4.63
2022-11-06T10:05:26.998Z,5.60
2022-11-06T10:07:58.514Z,4.33
2022-11-06T10:10:31.609Z,3.90
2022-11-06T10:13:08.013Z,4.30
2022-11-06T10:15:40.430Z,3.93
2022-11-06T10:18:14.867Z,4.00
2022-11-06T10:20:49.643Z,4.27
2022-11-06T10:23:22.276Z,5.10
2022-11-06T10:26:01.097Z,5.17
2022-11-06T10:28:40.682Z,4.37
2022-11-06T10:31:13.769Z,3.80
2022-11-06T10:33:53.114Z,4.07
2022-11-06T10:36:24.416Z,3.90
2022-11-06T10:38:54.480Z,3.83
2022-11-06T10:41:26.274Z,3.53
2022-11-06T10:43:59.807Z,3.37
2022-11-06T10:46:34.952Z,4.60
2022-11-06T10:49:04.620Z,4.37
2022-11-06T10:51:51.963Z,6.23
2022-11-06T10:54:32.841Z,8.37
2022-11-06T10:57:13.557Z,7.47
2022-11-06T10:59:43.756Z,14.17
2022-11-06T11:02:24.111Z,5.83
2022-11-06T11:04:57.686Z,5.20
2022-11-06T11:07:29.703Z,3.80
2022-11-06T11:09:58.435Z,4.10
2022-11-06T11:12:28.905Z,3.47
2022-11-06T11:15:14.402Z,3.97
2022-11-06T11:17:43.965Z,3.57
2022-11-06T11:20:33.335Z,2.83
2022-11-06T11:23:12.160Z,3.90
2022-11-06T11:25:40.658Z,3.40
2022-11-06T11:28:23.859Z,2.90
2022-11-06T11:30:55.813Z,3.13
2022-11-06T11:33:27.262Z,4.00
2022-11-06T11:35:55.910Z,3.90
2022-11-06T11:38:26.120Z,3.60
2022-11-06T11:41:08.097Z,2.83
2022-11-06T11:43:37.382Z,4.20
2022-11-06T11:46:22.824Z,4.83
2022-11-06T11:48:52.770Z,4.70
2022-11-06T11:51:31.948Z,5.40
2022-11-06T11:54:08.849Z,4.80
2022-11-06T11:59:38.885Z,4.53
2022-11-06T12:02:16.284Z,3.67
2022-11-06T12:04:47.508Z,4.60
2022-11-06T12:07:25.483Z,4.00
2022-11-06T12:09:54.324Z,3.80
2022-11-06T12:12:25.345Z,4.50
2022-11-06T12:15:07.711Z,5.40
2022-11-06T12:17:39.574Z,4.60
2022-11-06T12:20:13.337Z,5.17
2022-11-06T12:22:45.014Z,4.80
2022-11-06T12:25:17.763Z,4.30
2022-11-06T12:27:48.859Z,4.20
2022-11-06T12:30:19.303Z,3.67
2022-11-06T12:33:00.035Z,4.10
2022-11-06T12:35:30.630Z,3.90
2022-11-06T12:38:19.845Z,5.67
2022-11-06T12:40:50.862Z,4.77
2022-11-06T12:43:24.910Z,3.40
2022-11-06T12:46:17.401Z,3.07
2022-11-06T12:49:03.466Z,3.43
2022-11-06T12:51:37.941Z,3.00
2022-11-06T12:54:17.770Z,2.80
2022-11-06T12:56:53.206Z,2.97
2022-11-06T12:59:33.838Z,2.93
2022-11-06T13:02:11.039Z,3.60
2022-11-06T13:04:48.453Z,3.20
2022-11-06T13:07:52.856Z,2.77
2022-11-06T13:10:27.927Z,3.10
2022-11-06T13:13:10.193Z,2.77
2022-11-06T13:15:48.011Z,3.10
2022-11-06T13:18:20.323Z,3.20
2022-11-06T13:20:56.584Z,2.53
2022-11-06T13:23:29.766Z,2.90
2022-11-06T13:26:03.159Z,3.27
2022-11-06T13:28:35.988Z,2.67
2022-11-06T13:31:07.245Z,2.70
2022-11-06T13:33:39.397Z,2.53
2022-11-06T13:36:09.967Z,3.00
2022-11-06T13:38:41.653Z,2.73
2022-11-06T13:41:15.917Z,2.60
2022-11-06T13:43:46.112Z,2.93
2022-11-06T13:46:23.581Z,3.03
2022-11-06T13:49:06.409Z,2.57
2022-11-06T13:51:44.572Z,2.53
2022-11-06T13:54:23.178Z,3.07
2022-11-06T13:57:19.976Z,2.97
2022-11-06T14:00:16.067Z,2.90
2022-11-06T14:03:21.709Z,3.00
2022-11-06T14:05:53.989Z,2.87
2022-11-06T14:08:27.288Z,2.93
2022-11-06T14:10:59.467Z,2.63
2022-11-06T14:13:30.308Z,2.90
2022-11-06T14:16:26.510Z,3.13
2022-11-06T14:19:04.930Z,3.80
2022-11-06T14:21:49.784Z,3.40
2022-11-06T14:24:31.508Z,3.17
2022-11-06T14:27:01.766Z,5.73
2022-11-06T14:29:59.289Z,3.97
2022-11-06T14:32:45.033Z,4.97
2022-11-06T14:35:47.401Z,7.00
2022-11-06T14:38:46.011Z,3.87
2022-11-06T14:41:54.542Z,4.00
2022-11-06T14:44:27.278Z,4.50
2022-11-06T14:46:58.651Z,6.20
2022-11-06T14:49:37.944Z,4.60
2022-11-06T14:52:08.866Z,3.60
2022-11-06T14:54:40.454Z,3.77
2022-11-06T14:57:14.024Z,3.10
2022-11-06T14:59:43.141Z,3.03
2022-11-06T15:02:19.086Z,2.80
2022-11-06T15:04:51.486Z,3.90
2022-11-06T15:08:10.425Z,3.97
2022-11-06T15:10:56.243Z,3.70
2022-11-06T15:13:30.185Z,3.07
2022-11-06T15:16:04.701Z,2.90
2022-11-06T15:18:37.630Z,3.10
2022-11-06T15:21:09.843Z,2.70
2022-11-06T15:23:43.255Z,2.80
2022-11-06T15:26:22.689Z,3.90
2022-11-06T15:29:06.435Z,3.33
2022-11-06T15:31:35.318Z,3.27
2022-11-06T15:34:06.088Z,3.07
2022-11-06T15:36:39.741Z,4.20
2022-11-06T15:39:24.373Z,3.83
2022-11-06T15:41:53.541Z,3.77
2022-11-06T15:44:25.887Z,3.70
2022-11-06T15:46:55.060Z,3.43
2022-11-06T15:49:23.794Z,3.30
2022-11-06T15:51:54.461Z,3.70
2022-11-06T15:54:36.418Z,4.40
2022-11-06T15:57:09.620Z,5.17
2022-11-06T15:59:39.885Z,4.00
2022-11-06T16:02:16.148Z,3.43
2022-11-06T16:04:45.478Z,4.00
2022-11-06T16:07:15.780Z,4.47
2022-11-06T16:09:44.775Z,5.17
2022-11-06T16:12:14.677Z,4.40
2022-11-06T16:14:46.297Z,4.33
2022-11-06T16:17:18.754Z,3.97
2022-11-06T16:19:48.668Z,4.40
2022-11-06T16:22:19.541Z,3.20
2022-11-06T16:24:51.845Z,4.00
2022-11-06T16:27:21.912Z,3.63
2022-11-06T16:29:55.569Z,3.80
2022-11-06T16:32:26.301Z,3.40
2022-11-06T16:34:55.355Z,3.80
2022-11-06T16:37:41.878Z,3.97
2022-11-06T16:40:43.881Z,3.73
2022-11-06T16:43:16.602Z,3.77
2022-11-06T16:45:58.208Z,3.87
2022-11-06T16:48:31.943Z,3.60
2022-11-06T16:51:02.190Z,3.93
2022-11-06T16:53:33.521Z,3.93
2022-11-06T16:56:03.541Z,3.47
2022-11-06T16:58:35.722Z,3.87
2022-11-06T17:01:07.222Z,4.27
2022-11-06T17:03:40.777Z,4.03
2022-11-06T17:06:19.852Z,4.47
2022-11-06T17:09:00.098Z,4.50
2022-11-06T17:11:31.097Z,4.23
2022-11-06T17:14:00.540Z,4.83
2022-11-06T17:16:30.751Z,4.73
2022-11-06T17:18:59.383Z,4.67
2022-11-06T17:21:28.570Z,4.57
2022-11-06T17:24:07.654Z,4.60
2022-11-06T17:26:48.110Z,4.67
2022-11-06T17:29:21.990Z,4.27
2022-11-06T17:31:52.338Z,5.57
2022-11-06T17:34:21.097Z,5.13
2022-11-06T17:36:50.008Z,4.70
2022-11-06T17:39:18.697Z,5.37
2022-11-06T17:41:47.069Z,4.87
2022-11-06T17:44:17.323Z,4.73
2022-11-06T17:46:47.070Z,4.67
2022-11-06T17:49:18.807Z,4.83
2022-11-06T17:52:00.474Z,4.67
2022-11-06T17:54:32.286Z,4.57
2022-11-06T17:57:02.426Z,4.37
2022-11-06T17:59:31.472Z,5.07
2022-11-06T18:02:00.468Z,4.50
2022-11-06T18:04:34.450Z,5.50
2022-11-06T18:07:03.294Z,4.30
2022-11-06T18:09:32.003Z,5.60
2022-11-06T18:12:00.536Z,5.80
2022-11-06T18:14:29.423Z,5.70
2022-11-06T18:16:58.134Z,5.63
2022-11-06T18:19:27.950Z,5.37
2022-11-06T18:22:01.172Z,5.13
2022-11-06T18:24:34.438Z,4.73
2022-11-06T18:27:02.898Z,5.37
2022-11-06T18:29:31.515Z,4.97
2022-11-06T18:31:59.964Z,5.10
2022-11-06T18:34:28.451Z,4.63
2022-11-06T18:36:58.437Z,4.57
2022-11-06T18:39:27.152Z,4.83
2022-11-06T18:41:58.184Z,5.17
2022-11-06T18:44:27.046Z,4.43
2022-11-06T18:46:55.470Z,4.33
2022-11-06T18:49:24.008Z,4.37
2022-11-06T18:51:52.799Z,3.90
2022-11-06T18:54:22.973Z,4.13
2022-11-06T18:56:51.832Z,3.80
2022-11-06T18:59:20.826Z,4.30
2022-11-06T19:01:49.435Z,4.33
2022-11-06T19:04:18.219Z,3.97
2022-11-06T19:06:46.678Z,4.37
2022-11-06T19:09:15.263Z,4.83
2022-11-06T19:11:48.363Z,4.40
2022-11-06T19:14:17.402Z,4.27
2022-11-06T19:16:46.200Z,4.23
2022-11-06T19:19:24.958Z,4.07
2022-11-06T19:21:54.379Z,3.90
2022-11-06T19:24:23.300Z,3.80
2022-11-06T19:26:53.645Z,3.83
2022-11-06T19:29:22.843Z,3.70
2022-11-06T19:31:52.911Z,3.67
2022-11-06T19:34:25.308Z,4.60
2022-11-06T19:36:54.401Z,4.13
2022-11-06T19:39:23.235Z,3.80
2022-11-06T19:41:53.437Z,4.20
2022-11-06T19:44:22.694Z,4.87
2022-11-06T19:46:51.153Z,4.43
2022-11-06T19:49:19.500Z,4.67
2022-11-06T19:51:48.257Z,4.20
2022-11-06T19:54:17.071Z,4.47
2022-11-06T19:57:29.339Z,4.13
2022-11-06T19:59:37.134Z,3.70
2022-11-06T20:02:06.314Z,3.63
2022-11-06T20:04:34.613Z,4.17
2022-11-06T20:07:03.153Z,4.37
2022-11-06T20:09:32.083Z,4.70
2022-11-06T20:12:00.678Z,3.57
2022-11-06T20:14:29.225Z,3.73
2022-11-06T20:16:59.758Z,3.80
2022-11-06T20:19:28.796Z,3.73
2022-11-06T20:21:57.591Z,3.87
2022-11-06T20:24:26.129Z,4.03
2022-11-06T20:26:54.841Z,4.60
2022-11-06T20:29:23.558Z,4.10
2022-11-06T20:31:52.481Z,3.97
2022-11-06T20:34:22.348Z,3.70
2022-11-06T20:36:50.942Z,3.73
2022-11-06T20:39:19.361Z,3.70
2022-11-06T20:41:48.189Z,4.00
2022-11-06T20:44:17.100Z,3.77
2022-11-06T20:46:47.789Z,3.47
2022-11-06T20:49:17.065Z,3.80
2022-11-06T20:52:12.138Z,3.57
2022-11-06T20:54:35.835Z,3.70
2022-11-06T20:57:04.750Z,3.63
2022-11-06T20:59:33.501Z,3.57
2022-11-06T21:02:02.295Z,3.97
2022-11-06T21:04:31.115Z,3.70
2022-11-06T21:07:01.356Z,4.23
2022-11-06T21:09:30.035Z,3.87
2022-11-06T21:11:58.763Z,3.53
2022-11-06T21:14:27.764Z,4.10
2022-11-06T21:16:57.350Z,4.50
2022-11-06T21:19:25.835Z,3.80
2022-11-06T21:21:56.832Z,4.40
2022-11-06T21:24:27.417Z,4.00
2022-11-06T21:26:56.504Z,3.00
2022-11-06T21:29:26.014Z,3.60
2022-11-06T21:31:55.168Z,3.63
2022-11-06T21:34:24.066Z,3.47
2022-11-06T21:36:54.216Z,4.23
2022-11-06T21:39:30.498Z,3.23
2022-11-06T21:42:01.842Z,3.73
2022-11-06T21:44:30.577Z,3.73
2022-11-06T21:46:59.112Z,3.47
2022-11-06T21:49:27.839Z,3.47
2022-11-06T21:52:16.401Z,3.57
2022-11-06T21:55:03.786Z,3.77
2022-11-06T21:57:32.185Z,3.33
2022-11-06T22:00:01.420Z,3.80
2022-11-06T22:02:40.916Z,3.83
2022-11-06T22:05:10.922Z,4.17
2022-11-06T22:07:39.101Z,4.00
2022-11-06T22:10:10.901Z,3.50
2022-11-06T22:12:39.584Z,4.10
2022-11-06T22:15:09.807Z,3.63
2022-11-06T22:17:39.184Z,3.60
2022-11-06T22:20:09.286Z,4.30
2022-11-06T22:22:37.995Z,3.60
2022-11-06T22:25:09.187Z,4.03
2022-11-06T22:27:40.874Z,4.10
2022-11-06T22:30:11.346Z,4.13
2022-11-06T22:32:41.118Z,4.50
2022-11-06T22:35:10.996Z,3.67
2022-11-06T22:37:40.655Z,4.53
2022-11-06T22:40:13.921Z,4.37
2022-11-06T22:42:48.588Z,4.50
2022-11-06T22:45:19.265Z,4.13
2022-11-06T22:47:49.707Z,4.27
2022-11-06T22:50:18.333Z,4.23
2022-11-06T22:52:47.292Z,3.70
2022-11-06T22:55:17.929Z,4.30
2022-11-06T22:57:46.932Z,4.53
2022-11-06T23:00:18.001Z,4.23
2022-11-06T23:02:46.745Z,4.00
2022-11-06T23:05:15.404Z,4.50
2022-11-06T23:07:44.154Z,4.43
2022-11-06T23:10:12.920Z,4.07
2022-11-06T23:12:44.082Z,4.70
2022-11-06T23:15:13.853Z,4.10
2022-11-06T23:17:42.999Z,4.00
2022-11-06T23:20:12.708Z,5.00
2022-11-06T23:22:42.550Z,3.80
2022-11-06T23:25:12.416Z,3.70
2022-11-06T23:27:48.584Z,3.97
2022-11-06T23:30:18.636Z,3.90
2022-11-06T23:32:47.722Z,3.93
2022-11-06T23:35:17.223Z,4.23
2022-11-06T23:37:46.810Z,3.67
2022-11-06T23:40:15.563Z,4.57
2022-11-06T23:42:45.530Z,4.60
2022-11-06T23:45:31.772Z,4.13
2022-11-06T23:48:05.899Z,4.30
2022-11-06T23:50:37.281Z,4.47
2022-11-06T23:53:05.763Z,4.40
2022-11-06T23:55:34.600Z,4.43
2022-11-06T23:58:04.785Z,4.60
